Nearby METAR Reports

 

KSJC - San Jose, California, USA
Distance from station: NE 9mi, 14km
Updated: Mon, 23-Apr-2018 9:53pm MDT
Few Clouds
Few Clouds
 Wind from W
Wind: W 7 mph , 11 km/h
Temperature: 63°F , 17°C
Dew Point: 54°F , 12°C
Humidity: 73%
Barometer: 29.97 inHg , 1014.9 hPa
Clouds: Few Clouds
Visibility: 9 miles , 14 km
Cloud details: Few Clouds 20000 ft
2018/04/24 03:53 KSJC 240353Z 28006KT 9SM FEW200 17/12 A2997 RMK AO2 SLP148 T01720117
KNUQ - Moffett Nas/Mtn, California, USA
Distance from station: N 9mi, 14km
Updated: Mon, 23-Apr-2018 9:56pm MDT
Clear
Clear
 Wind from NW
Wind: NW 6 mph , 9 km/h
Temperature: 61°F , 16°C
Dew Point: 54°F , 12°C
Humidity: 77%
Barometer: 29.99 inHg , 1015.6 hPa
Clouds: Clear
Visibility: 10 miles , 16 km
2018/04/24 03:56 KNUQ 240356Z 32005KT 10SM CLR 16/12 A2999 RMK AO2 SLP157 T01560122
 
KPAO - Palo Alto, California, USA
Distance from station: NNW 14mi, 23km
Updated: Mon, 23-Apr-2018 8:47pm MDT
NOT Current
Few Clouds
Few Clouds
 Wind from NW
Wind: NW 12 mph , 19 km/h
Barometer: 29.95 inHg , 1014.2 hPa
Clouds: Few Clouds
Visibility: 10 miles , 16 km
Cloud details: Few Clouds 18000 ft
2018/04/24 02:47 KPAO 240247Z 32010KT 10SM FEW180 A2995
KRHV - San Jose/Reid, California, USA
Distance from station: ENE 12mi, 19km
Updated: Mon, 23-Apr-2018 9:47pm MDT
Clear
Clear
 Wind from NW
Wind: NW 12 mph , 19 km/h
Temperature: 64°F , 18°C
Dew Point: 55°F , 13°C
Humidity: 73%
Barometer: 29.95 inHg , 1014.2 hPa
Clouds: Clear
Visibility: 10 miles , 16 km
2018/04/24 03:47 KRHV 240347Z 31010KT 10SM SKC 18/13 A2995
 
KOAK - Oakland, California, USA
Distance from station: NNW 31mi, 50km
Updated: Mon, 23-Apr-2018 9:53pm MDT
Partly cloudy
Partly cloudy
 Wind from WNW
Wind: WNW 15 mph , 24 km/h
Temperature: 54°F , 12°C
Dew Point: 52°F , 11°C
Humidity: 94%
Barometer: 29.99 inHg , 1015.6 hPa
Clouds: Partly cloudy
Visibility: 9 miles , 14 km
Cloud details: Few Clouds 1000 ft
Partly cloudy 18000 ft
Partly cloudy 22000 ft
2018/04/24 03:53 KOAK 240353Z 30013KT 9SM FEW010 SCT180 SCT220 12/11 A2999 RMK AO2 SLP156 T01220106
KSQL - San Carlos Airpo, California, USA
Distance from station: NW 21mi, 34km
Updated: Mon, 23-Apr-2018 10:20pm MDT
Clear
Clear
 Wind from NW
Wind: NW 8 mph , 13 km/h
Temperature: 57°F , 14°C
Dew Point: 48°F , 9°C
Humidity: 72%
Barometer: 29.99 inHg , 1015.6 hPa
Clouds: Clear
Visibility: 10 miles , 16 km
2018/04/24 04:20 KSQL 240420Z AUTO 31007KT 10SM CLR 14/09 A2999 RMK AO2
 
KSFO - San Francisco, California, USA
Distance from station: NW 30mi, 49km
Updated: Mon, 23-Apr-2018 9:56pm MDT
Partly cloudy
Partly cloudy
 Wind from WNW
Wind: WNW 16 mph , 26 km/h
Temperature: 55°F , 13°C
Dew Point: 48°F , 9°C
Humidity: 77%
Barometer: 29.98 inHg , 1015.2 hPa
Clouds: Partly cloudy
Visibility: 10 miles , 16 km
Cloud details: Few Clouds 900 ft
Partly cloudy 20000 ft
2018/04/24 03:56 KSFO 240356Z 29014KT 10SM FEW009 SCT200 13/09 A2998 RMK AO2 SLP152 T01330094
KE16 - San Martin, California, USA
Distance from station: ESE 27mi, 43km
Updated: Mon, 23-Apr-2018 10:15pm MDT
Overcast
Overcast
 Wind from SE
Wind: SE 10 mph , 17 km/h
Temperature: 54°F , 12°C
Dew Point: 48°F , 9°C
Humidity: 82%
Barometer: 30.03 inHg , 1016.9 hPa
Clouds: Overcast
Visibility: 9 miles , 14 km
Cloud details: Partly cloudy 2000 ft
Partly cloudy 2900 ft
Overcast 6000 ft
2018/04/24 04:15 KE16 240415Z AUTO 13009KT 9SM SCT020 SCT029 OVC060 12/09 A3003 RMK AO2
 
KWVI - Watsonville, California, USA
Distance from station: SSE 27mi, 44km
Updated: Mon, 23-Apr-2018 9:53pm MDT
Mist, Overcast
Mist, Overcast
 Wind from SW
Wind: SW 3 mph , 6 km/h
Temperature: 52°F , 11°C
Dew Point: 52°F , 11°C
Humidity: 100%
Barometer: 30.04 inHg , 1017.3 hPa
Summary: Mist
Clouds: Overcast
Visibility: 6 miles , 10 km
Cloud details: Overcast 500 ft
2018/04/24 03:53 KWVI 240353Z AUTO 22003KT 6SM BR OVC005 11/11 A3004 RMK AO2 SLP171 T01110106
KHAF - Half Moon Bay, California, USA
Distance from station: WNW 31mi, 50km
Updated: Mon, 23-Apr-2018 10:20pm MDT
Mist, Overcast
Mist, Overcast
 Wind from S
Wind: S 6 mph , 9 km/h
Temperature: 54°F , 12°C
Dew Point: 50°F , 10°C
Humidity: 88%
Barometer: 30.04 inHg , 1017.3 hPa
Summary: Mist
Clouds: Overcast
Visibility: 5 miles , 8 km
Cloud details: Overcast 800 ft
2018/04/24 04:20 KHAF 240420Z AUTO 19005KT 5SM BR OVC008 12/10 A3004 RMK AO2
 
KHWD - Hayward, California, USA
Distance from station: N 28mi, 44km
Updated: Mon, 23-Apr-2018 9:54pm MDT
Clear
Clear
 Wind from NW
Wind: NW 10 mph , 17 km/h
Temperature: 57°F , 14°C
Dew Point: 48°F , 9°C
Humidity: 72%
Barometer: 29.98 inHg , 1015.2 hPa
Clouds: Clear
Visibility: 9 miles , 14 km
2018/04/24 03:54 KHWD 240354Z 31009KT 9SM CLR 14/09 A2998 RMK AO2 SLP163 T01440094
KLVK - Livermore, California, USA
Distance from station: NNE 31mi, 51km
Updated: Mon, 23-Apr-2018 9:53pm MDT
Clear
Clear
 Wind from W
Wind: W 7 mph , 11 km/h
Temperature: 66°F , 19°C
Dew Point: 52°F , 11°C
Humidity: 60%
Barometer: 29.95 inHg , 1014.2 hPa
Clouds: Clear
Visibility: 10 miles , 16 km
2018/04/24 03:53 KLVK 240353Z AUTO 28006KT 10SM CLR 19/11 A2995 RMK AO2 SLP138 T01890106